• Join FlightAware (Why Join?)
  • Login
  • US Flag 
04:02PM EST


 

Airport Tracker/Info


-or-


 

Live Flight TrackerFlight Track Log ✈ ASQ5311 ✈ 18-Apr-2014 ✈ KFWA - KDTW

Flight Track Log - Related Links

Times and Time Zones

All times are in EDT time to prevent confusion due to time zone crossing. See the ASQ5311 flight status page for this flight to view local times or setup timezone preferences in your user account.

Time Position Orientation Groundspeed Altitude Reporting Facility
EDT Latitude Longitude Course Direction KTS MPH feet Rate Location/Type
05:31PM 41.0233 -85.2306 38° Northeast 177 204 4,000  Level Chicago Center
05:32PM 41.0606 -85.1681 52° Northeast 251 289 7,000 2,700 Climbing Chicago Center
05:33PM 41.0925 -85.0706 66° East 290 334 9,600 1,860 Climbing Chicago Center
05:34PM 41.1603 -84.9917 41° Northeast 327 376 10,900 1,140 Climbing Chicago Center
05:35PM 41.2592 -84.8853 39° Northeast 381 438 12,000 480 Climbing Chicago Center
05:36PM 41.2963 -84.8272 38° Northeast  Level FlightAware Approximate
05:36PM 41.3469 -84.7925 38° Northeast 401 461 12,000  Level Chicago Center
05:37PM 41.4231 -84.6881 46° Northeast 400 460 12,000  Level Cleveland Center
05:38PM 41.4953 -84.5736 50° Northeast 400 460 12,000  Level Cleveland Center
05:39PM 41.5658 -84.4608 50° Northeast 400 460 12,000  Level Cleveland Center
05:40PM 41.6356 -84.3467 51° Northeast 400 460 12,000  Level Cleveland Center
05:41PM 41.7072 -84.2319 50° Northeast 402 463 12,000  Level Cleveland Center
05:42PM 41.7731 -84.1242 51° Northeast 403 464 12,000  Level Cleveland Center
05:42PM 41.7789 -84.1147 50° Northeast 403 464 12,000  Level Cleveland Center
05:43PM 41.8389 -84.0164 51° Northeast 333 383 12,000 -240 Level Cleveland Center
05:43PM 41.8517 -83.9883 59° Northeast 348 400 11,800 -1,620 Descending Cleveland Center
05:44PM 41.8764 -83.8931 71° East 316 364 10,200 -1,800 Descending Cleveland Center
05:44PM 41.8811 -83.8792 65° Northeast 316 364 10,000 -2,160 Descending Cleveland Center
05:45PM 41.9072 -83.7994 66° East 302 348 8,300 -1,980 Descending Cleveland Center
05:45PM 41.9147 -83.7767 66° East 306 352 8,000 -1,680 Descending Cleveland Center
05:46PM 41.9378 -83.7083 66° East 284 327 6,800 -1,800 Descending Cleveland Center
05:46PM 41.9481 -83.6800 64° Northeast 291 335 6,200 -2,100 Descending Cleveland Center
05:47PM 41.9706 -83.6147 65° Northeast 274 315 4,700 -1,980 Descending Cleveland Center
05:47PM 41.9792 -83.5900 65° Northeast 276 318 4,200 -660 Descending Cleveland Center
05:48PM 42.0092 -83.5250 58° Northeast 213 245 4,000 -240 Descending Cleveland Center
05:48PM 42.0236 -83.5122 33° Northeast 215 247 4,000  Level Cleveland Center
05:49PM 42.0558 -83.4922 25° Northeast 192 221 4,000 -300 Level Cleveland Center
05:49PM 42.0725 -83.4803 28° Northeast 200 230 3,700 -1,140 Descending Cleveland Center
05:50PM 42.1050 -83.4542 31° Northeast 191 220 2,900 -1,080 Descending Cleveland Center
05:50PM 42.1200 -83.4450 24° Northeast 199 229 2,600 -840 Descending Cleveland Center
05:51PM 42.1492 -83.4239 28° Northeast 132 152 2,000 -780 Descending Cleveland Center
05:51PM 42.1542 -83.4192 35° Northeast 164 189 1,800 -840 Descending Cleveland Center
05:52PM 42.1806 -83.4000 28° Northeast 134 154 1,200 -720 Descending Cleveland Center
05:52PM 42.1861 -83.3953 32° Northeast 144 166 1,100 -300 Descending Cleveland Center
05:53PM 42.2261 -83.3667 28° Northeast 141 162 800 -300 Descending Cleveland Center
05:55PM 42.2124 -83.3534 144° Southeast  Level Estimated
06:02PM 42.2124 -83.3534 North  Level Estimated